sensor_id;sensor_type;location;lat;lon;timestamp;temperature;humidity
8109;DHT22;4097;47.812;12.374;2022-12-07T00:01:42;3.80;99.90
8109;DHT22;4097;47.812;12.374;2022-12-07T00:04:11;3.80;99.90
8109;DHT22;4097;47.812;12.374;2022-12-07T00:06:39;3.80;99.90
8109;DHT22;4097;47.812;12.374;2022-12-07T00:09:14;3.80;99.90
8109;DHT22;4097;47.812;12.374;2022-12-07T00:11:41;3.80;99.90
8109;DHT22;4097;47.812;12.374;2022-12-07T00:14:11;3.80;99.90
8109;DHT22;4097;47.812;12.374;2022-12-07T00:16:39;3.80;99.90
8109;DHT22;4097;47.812;12.374;2022-12-07T00:19:13;3.80;99.90
8109;DHT22;4097;47.812;12.374;2022-12-07T00:21:41;3.80;99.90
8109;DHT22;4097;47.812;12.374;2022-12-07T00:24:10;3.80;99.90
8109;DHT22;4097;47.812;12.374;2022-12-07T00:26:41;3.80;99.90
8109;DHT22;4097;47.812;12.374;2022-12-07T00:29:22;3.80;99.90
8109;DHT22;4097;47.812;12.374;2022-12-07T00:31:49;3.80;99.90
8109;DHT22;4097;47.812;12.374;2022-12-07T00:34:18;3.90;99.90
8109;DHT22;4097;47.812;12.374;2022-12-07T00:36:46;3.90;99.90
8109;DHT22;4097;47.812;12.374;2022-12-07T00:39:19;3.90;99.90
8109;DHT22;4097;47.812;12.374;2022-12-07T00:41:47;3.90;99.90
8109;DHT22;4097;47.812;12.374;2022-12-07T00:44:14;3.90;99.90
8109;DHT22;4097;47.812;12.374;2022-12-07T00:46:41;3.80;99.90
8109;DHT22;4097;47.812;12.374;2022-12-07T00:49:14;3.80;99.90
8109;DHT22;4097;47.812;12.374;2022-12-07T00:51:41;3.90;99.90
8109;DHT22;4097;47.812;12.374;2022-12-07T00:54:08;3.90;99.90
8109;DHT22;4097;47.812;12.374;2022-12-07T00:56:35;3.90;99.90
8109;DHT22;4097;47.812;12.374;2022-12-07T00:59:12;3.80;99.90
8109;DHT22;4097;47.812;12.374;2022-12-07T01:01:40;3.80;99.90
8109;DHT22;4097;47.812;12.374;2022-12-07T01:04:08;3.80;99.90
8109;DHT22;4097;47.812;12.374;2022-12-07T01:06:35;3.80;99.90
8109;DHT22;4097;47.812;12.374;2022-12-07T01:09:08;3.80;99.90
8109;DHT22;4097;47.812;12.374;2022-12-07T01:11:35;3.80;99.90
8109;DHT22;4097;47.812;12.374;2022-12-07T01:14:02;3.90;99.90
8109;DHT22;4097;47.812;12.374;2022-12-07T01:16:32;3.80;99.90
8109;DHT22;4097;47.812;12.374;2022-12-07T01:19:05;3.80;99.90
8109;DHT22;4097;47.812;12.374;2022-12-07T01:21:33;3.70;99.90
8109;DHT22;4097;47.812;12.374;2022-12-07T01:24:04;3.70;99.90
8109;DHT22;4097;47.812;12.374;2022-12-07T01:26:31;3.70;99.90
8109;DHT22;4097;47.812;12.374;2022-12-07T01:29:04;3.60;99.90
8109;DHT22;4097;47.812;12.374;2022-12-07T01:31:33;3.60;99.90
8109;DHT22;4097;47.812;12.374;2022-12-07T01:34:00;3.60;99.90
8109;DHT22;4097;47.812;12.374;2022-12-07T01:36:29;3.50;99.90
8109;DHT22;4097;47.812;12.374;2022-12-07T01:39:04;3.50;99.90
8109;DHT22;4097;47.812;12.374;2022-12-07T01:41:34;3.50;99.90
8109;DHT22;4097;47.812;12.374;2022-12-07T01:44:16;3.50;99.90
8109;DHT22;4097;47.812;12.374;2022-12-07T01:46:46;3.50;99.90
8109;DHT22;4097;47.812;12.374;2022-12-07T01:49:20;3.50;99.90
8109;DHT22;4097;47.812;12.374;2022-12-07T01:51:49;3.50;99.90
8109;DHT22;4097;47.812;12.374;2022-12-07T01:54:18;3.40;99.90
8109;DHT22;4097;47.812;12.374;2022-12-07T01:56:50;3.40;99.90
8109;DHT22;4097;47.812;12.374;2022-12-07T01:59:27;3.40;99.90
8109;DHT22;4097;47.812;12.374;2022-12-07T02:01:56;3.40;99.90
8109;DHT22;4097;47.812;12.374;2022-12-07T02:04:23;3.40;99.90
8109;DHT22;4097;47.812;12.374;2022-12-07T02:06:52;3.40;99.90
8109;DHT22;4097;47.812;12.374;2022-12-07T02:09:25;3.40;99.90
8109;DHT22;4097;47.812;12.374;2022-12-07T02:11:53;3.40;99.90
8109;DHT22;4097;47.812;12.374;2022-12-07T02:14:21;3.40;99.90
8109;DHT22;4097;47.812;12.374;2022-12-07T02:17:02;3.40;99.90
8109;DHT22;4097;47.812;12.374;2022-12-07T02:20:08;3.40;99.90
8109;DHT22;4097;47.812;12.374;2022-12-07T02:22:55;3.40;99.90
8109;DHT22;4097;47.812;12.374;2022-12-07T02:25:37;3.30;99.90
8109;DHT22;4097;47.812;12.374;2022-12-07T02:28:17;3.40;99.90
8109;DHT22;4097;47.812;12.374;2022-12-07T02:30:55;3.40;99.90
8109;DHT22;4097;47.812;12.374;2022-12-07T02:33:29;3.40;99.90
8109;DHT22;4097;47.812;12.374;2022-12-07T02:36:02;3.40;99.90
8109;DHT22;4097;47.812;12.374;2022-12-07T02:38:36;3.40;99.90
8109;DHT22;4097;47.812;12.374;2022-12-07T02:41:10;3.40;99.90
8109;DHT22;4097;47.812;12.374;2022-12-07T02:43:41;3.40;99.90
8109;DHT22;4097;47.812;12.374;2022-12-07T02:46:14;3.40;99.90
8109;DHT22;4097;47.812;12.374;2022-12-07T02:48:43;3.40;99.90
8109;DHT22;4097;47.812;12.374;2022-12-07T02:51:13;3.50;99.90
8109;DHT22;4097;47.812;12.374;2022-12-07T02:53:42;3.40;99.90
8109;DHT22;4097;47.812;12.374;2022-12-07T02:56:16;3.40;99.90
8109;DHT22;4097;47.812;12.374;2022-12-07T02:59:01;3.40;99.90
8109;DHT22;4097;47.812;12.374;2022-12-07T03:01:37;3.50;99.90
8109;DHT22;4097;47.812;12.374;2022-12-07T03:04:17;3.50;99.90
8109;DHT22;4097;47.812;12.374;2022-12-07T03:06:50;3.50;99.90
8109;DHT22;4097;47.812;12.374;2022-12-07T03:09:31;3.50;99.90
8109;DHT22;4097;47.812;12.374;2022-12-07T03:12:06;3.50;99.90
8109;DHT22;4097;47.812;12.374;2022-12-07T03:14:40;3.50;99.90
8109;DHT22;4097;47.812;12.374;2022-12-07T03:17:13;3.60;99.90
8109;DHT22;4097;47.812;12.374;2022-12-07T03:19:48;3.50;99.90
8109;DHT22;4097;47.812;12.374;2022-12-07T03:22:17;3.50;99.90
8109;DHT22;4097;47.812;12.374;2022-12-07T03:24:49;3.50;99.90
8109;DHT22;4097;47.812;12.374;2022-12-07T03:27:21;3.50;99.90
8109;DHT22;4097;47.812;12.374;2022-12-07T03:29:58;3.50;99.90
8109;DHT22;4097;47.812;12.374;2022-12-07T03:32:30;3.60;99.90
8109;DHT22;4097;47.812;12.374;2022-12-07T03:35:03;3.60;99.90
8109;DHT22;4097;47.812;12.374;2022-12-07T03:37:35;3.60;99.90
8109;DHT22;4097;47.812;12.374;2022-12-07T03:40:11;3.70;99.90
8109;DHT22;4097;47.812;12.374;2022-12-07T03:42:40;3.60;99.90
8109;DHT22;4097;47.812;12.374;2022-12-07T03:45:07;3.60;99.90
8109;DHT22;4097;47.812;12.374;2022-12-07T03:47:39;3.60;99.90
8109;DHT22;4097;47.812;12.374;2022-12-07T03:50:16;3.60;99.90
8109;DHT22;4097;47.812;12.374;2022-12-07T03:52:49;3.60;99.90
8109;DHT22;4097;47.812;12.374;2022-12-07T03:55:22;3.60;99.90
8109;DHT22;4097;47.812;12.374;2022-12-07T03:57:54;3.60;99.90
8109;DHT22;4097;47.812;12.374;2022-12-07T04:00:30;3.60;99.90
8109;DHT22;4097;47.812;12.374;2022-12-07T04:02:59;3.60;99.90
8109;DHT22;4097;47.812;12.374;2022-12-07T04:05:26;3.60;99.90
8109;DHT22;4097;47.812;12.374;2022-12-07T04:07:54;3.60;99.90
8109;DHT22;4097;47.812;12.374;2022-12-07T04:10:27;3.60;99.90
8109;DHT22;4097;47.812;12.374;2022-12-07T04:12:54;3.50;99.90
8109;DHT22;4097;47.812;12.374;2022-12-07T04:15:20;3.50;99.90
8109;DHT22;4097;47.812;12.374;2022-12-07T04:17:48;3.50;99.90
8109;DHT22;4097;47.812;12.374;2022-12-07T04:20:19;3.60;99.90
8109;DHT22;4097;47.812;12.374;2022-12-07T04:22:46;3.50;99.90
8109;DHT22;4097;47.812;12.374;2022-12-07T04:25:13;3.50;99.90
8109;DHT22;4097;47.812;12.374;2022-12-07T04:27:40;3.50;99.90
8109;DHT22;4097;47.812;12.374;2022-12-07T04:30:09;3.50;99.90
8109;DHT22;4097;47.812;12.374;2022-12-07T04:32:36;3.50;99.90
8109;DHT22;4097;47.812;12.374;2022-12-07T04:35:04;3.40;99.90
8109;DHT22;4097;47.812;12.374;2022-12-07T04:37:33;3.40;99.90
8109;DHT22;4097;47.812;12.374;2022-12-07T04:40:07;3.50;99.90
8109;DHT22;4097;47.812;12.374;2022-12-07T04:42:36;3.40;99.90
8109;DHT22;4097;47.812;12.374;2022-12-07T04:45:04;3.40;99.90
8109;DHT22;4097;47.812;12.374;2022-12-07T04:47:32;3.40;99.90
8109;DHT22;4097;47.812;12.374;2022-12-07T04:50:06;3.40;99.90
8109;DHT22;4097;47.812;12.374;2022-12-07T04:52:34;3.40;99.90
8109;DHT22;4097;47.812;12.374;2022-12-07T04:55:01;3.40;99.90
8109;DHT22;4097;47.812;12.374;2022-12-07T04:57:28;3.40;99.90
8109;DHT22;4097;47.812;12.374;2022-12-07T05:00:01;3.40;99.90
8109;DHT22;4097;47.812;12.374;2022-12-07T05:02:28;3.40;99.90
8109;DHT22;4097;47.812;12.374;2022-12-07T05:04:55;3.40;99.90
8109;DHT22;4097;47.812;12.374;2022-12-07T05:07:22;3.40;99.90
8109;DHT22;4097;47.812;12.374;2022-12-07T05:09:53;3.50;99.90
8109;DHT22;4097;47.812;12.374;2022-12-07T05:12:20;3.50;99.90
8109;DHT22;4097;47.812;12.374;2022-12-07T05:14:47;3.50;99.90
8109;DHT22;4097;47.812;12.374;2022-12-07T05:17:14;3.50;99.90
8109;DHT22;4097;47.812;12.374;2022-12-07T05:19:45;3.50;99.90
8109;DHT22;4097;47.812;12.374;2022-12-07T05:22:12;3.50;99.90
8109;DHT22;4097;47.812;12.374;2022-12-07T05:24:39;3.50;99.90
8109;DHT22;4097;47.812;12.374;2022-12-07T05:27:07;3.50;99.90
8109;DHT22;4097;47.812;12.374;2022-12-07T05:29:40;3.50;99.90
8109;DHT22;4097;47.812;12.374;2022-12-07T05:32:07;3.50;99.90
8109;DHT22;4097;47.812;12.374;2022-12-07T05:34:34;3.50;99.90
8109;DHT22;4097;47.812;12.374;2022-12-07T05:37:01;3.50;99.90
8109;DHT22;4097;47.812;12.374;2022-12-07T05:39:34;3.50;99.90
8109;DHT22;4097;47.812;12.374;2022-12-07T05:42:03;3.50;99.90
8109;DHT22;4097;47.812;12.374;2022-12-07T05:44:41;3.60;99.90
8109;DHT22;4097;47.812;12.374;2022-12-07T05:47:09;3.50;99.90
8109;DHT22;4097;47.812;12.374;2022-12-07T05:49:39;3.60;99.90
8109;DHT22;4097;47.812;12.374;2022-12-07T05:52:06;3.60;99.90
8109;DHT22;4097;47.812;12.374;2022-12-07T05:54:33;3.60;99.90
8109;DHT22;4097;47.812;12.374;2022-12-07T05:57:00;3.60;99.90
8109;DHT22;4097;47.812;12.374;2022-12-07T05:59:30;3.60;99.90
8109;DHT22;4097;47.812;12.374;2022-12-07T06:02:00;3.60;99.90
8109;DHT22;4097;47.812;12.374;2022-12-07T06:04:29;3.60;99.90
8109;DHT22;4097;47.812;12.374;2022-12-07T06:06:56;3.60;99.90
8109;DHT22;4097;47.812;12.374;2022-12-07T06:09:30;3.60;99.90
8109;DHT22;4097;47.812;12.374;2022-12-07T06:11:57;3.60;99.90
8109;DHT22;4097;47.812;12.374;2022-12-07T06:14:42;3.60;99.90
8109;DHT22;4097;47.812;12.374;2022-12-07T06:17:11;3.60;99.90
8109;DHT22;4097;47.812;12.374;2022-12-07T06:19:44;3.60;99.90
8109;DHT22;4097;47.812;12.374;2022-12-07T06:22:12;3.60;99.90
8109;DHT22;4097;47.812;12.374;2022-12-07T06:24:39;3.60;99.90
8109;DHT22;4097;47.812;12.374;2022-12-07T06:27:08;3.60;99.90
8109;DHT22;4097;47.812;12.374;2022-12-07T06:29:41;3.60;99.90
8109;DHT22;4097;47.812;12.374;2022-12-07T06:32:08;3.60;99.90
8109;DHT22;4097;47.812;12.374;2022-12-07T06:34:37;3.60;99.90
8109;DHT22;4097;47.812;12.374;2022-12-07T06:37:04;3.60;99.90
8109;DHT22;4097;47.812;12.374;2022-12-07T06:39:34;3.60;99.90
8109;DHT22;4097;47.812;12.374;2022-12-07T06:42:01;3.60;99.90
8109;DHT22;4097;47.812;12.374;2022-12-07T06:44:28;3.60;99.90
8109;DHT22;4097;47.812;12.374;2022-12-07T06:46:55;3.60;99.90
8109;DHT22;4097;47.812;12.374;2022-12-07T06:49:25;3.60;99.90
8109;DHT22;4097;47.812;12.374;2022-12-07T06:51:54;3.60;99.90
8109;DHT22;4097;47.812;12.374;2022-12-07T06:54:21;3.60;99.90
8109;DHT22;4097;47.812;12.374;2022-12-07T06:56:48;3.70;99.90
8109;DHT22;4097;47.812;12.374;2022-12-07T06:59:27;3.60;99.90
8109;DHT22;4097;47.812;12.374;2022-12-07T07:01:54;3.60;99.90
8109;DHT22;4097;47.812;12.374;2022-12-07T07:04:21;3.60;99.90
8109;DHT22;4097;47.812;12.374;2022-12-07T07:06:48;3.60;99.90
8109;DHT22;4097;47.812;12.374;2022-12-07T07:09:22;3.60;99.90
8109;DHT22;4097;47.812;12.374;2022-12-07T07:11:49;3.60;99.90
8109;DHT22;4097;47.812;12.374;2022-12-07T07:14:16;3.60;99.90
8109;DHT22;4097;47.812;12.374;2022-12-07T07:16:44;3.60;99.90
8109;DHT22;4097;47.812;12.374;2022-12-07T07:19:18;3.60;99.90
8109;DHT22;4097;47.812;12.374;2022-12-07T07:21:45;3.60;99.90
8109;DHT22;4097;47.812;12.374;2022-12-07T07:24:12;3.60;99.90
8109;DHT22;4097;47.812;12.374;2022-12-07T07:26:41;3.60;99.90
8109;DHT22;4097;47.812;12.374;2022-12-07T07:29:14;3.50;99.90
8109;DHT22;4097;47.812;12.374;2022-12-07T07:31:41;3.50;99.90
8109;DHT22;4097;47.812;12.374;2022-12-07T07:34:08;3.50;99.90
8109;DHT22;4097;47.812;12.374;2022-12-07T07:36:35;3.40;99.90
8109;DHT22;4097;47.812;12.374;2022-12-07T07:39:07;3.40;99.90
8109;DHT22;4097;47.812;12.374;2022-12-07T07:41:34;3.40;99.90
8109;DHT22;4097;47.812;12.374;2022-12-07T07:44:03;3.30;99.90
8109;DHT22;4097;47.812;12.374;2022-12-07T07:46:30;3.30;99.90
8109;DHT22;4097;47.812;12.374;2022-12-07T07:49:05;3.30;99.90
8109;DHT22;4097;47.812;12.374;2022-12-07T07:51:32;3.30;99.90
8109;DHT22;4097;47.812;12.374;2022-12-07T07:53:59;3.20;99.90
8109;DHT22;4097;47.812;12.374;2022-12-07T07:56:26;3.20;99.90
8109;DHT22;4097;47.812;12.374;2022-12-07T07:59:06;3.10;99.90
8109;DHT22;4097;47.812;12.374;2022-12-07T08:01:33;2.70;99.90
8109;DHT22;4097;47.812;12.374;2022-12-07T08:04:00;2.70;99.90
8109;DHT22;4097;47.812;12.374;2022-12-07T08:06:31;2.60;99.90
8109;DHT22;4097;47.812;12.374;2022-12-07T08:09:04;2.60;99.90
8109;DHT22;4097;47.812;12.374;2022-12-07T08:11:32;2.60;99.90
8109;DHT22;4097;47.812;12.374;2022-12-07T08:13:59;2.70;99.90
8109;DHT22;4097;47.812;12.374;2022-12-07T08:16:27;2.70;99.90
8109;DHT22;4097;47.812;12.374;2022-12-07T08:19:00;2.80;99.90
8109;DHT22;4097;47.812;12.374;2022-12-07T08:21:27;2.80;99.90
8109;DHT22;4097;47.812;12.374;2022-12-07T08:23:54;2.80;99.90
8109;DHT22;4097;47.812;12.374;2022-12-07T08:26:21;2.80;99.90
8109;DHT22;4097;47.812;12.374;2022-12-07T08:29:01;2.70;99.90
8109;DHT22;4097;47.812;12.374;2022-12-07T08:31:29;2.70;99.90
8109;DHT22;4097;47.812;12.374;2022-12-07T08:33:57;2.60;99.90
8109;DHT22;4097;47.812;12.374;2022-12-07T08:36:24;2.50;99.90
8109;DHT22;4097;47.812;12.374;2022-12-07T08:39:03;2.50;99.90
8109;DHT22;4097;47.812;12.374;2022-12-07T08:41:30;2.60;99.90
8109;DHT22;4097;47.812;12.374;2022-12-07T08:43:57;2.60;99.90
8109;DHT22;4097;47.812;12.374;2022-12-07T08:46:26;2.60;99.90
8109;DHT22;4097;47.812;12.374;2022-12-07T08:49:09;2.60;99.90
8109;DHT22;4097;47.812;12.374;2022-12-07T08:51:37;2.60;99.90
8109;DHT22;4097;47.812;12.374;2022-12-07T08:54:07;2.60;99.90
8109;DHT22;4097;47.812;12.374;2022-12-07T08:56:36;2.70;99.90
8109;DHT22;4097;47.812;12.374;2022-12-07T08:59:09;2.70;99.90
8109;DHT22;4097;47.812;12.374;2022-12-07T09:01:37;2.80;99.90
8109;DHT22;4097;47.812;12.374;2022-12-07T09:04:05;2.80;99.90
8109;DHT22;4097;47.812;12.374;2022-12-07T09:06:33;2.80;99.90
8109;DHT22;4097;47.812;12.374;2022-12-07T09:09:06;2.80;99.90
8109;DHT22;4097;47.812;12.374;2022-12-07T09:11:35;2.80;99.90
8109;DHT22;4097;47.812;12.374;2022-12-07T09:14:02;2.80;99.90
8109;DHT22;4097;47.812;12.374;2022-12-07T09:16:29;2.80;99.90
8109;DHT22;4097;47.812;12.374;2022-12-07T09:19:02;2.80;99.90
8109;DHT22;4097;47.812;12.374;2022-12-07T09:21:33;2.80;99.90
8109;DHT22;4097;47.812;12.374;2022-12-07T09:24:00;2.90;99.90
8109;DHT22;4097;47.812;12.374;2022-12-07T09:26:27;2.90;99.90
8109;DHT22;4097;47.812;12.374;2022-12-07T09:29:01;2.90;99.90
8109;DHT22;4097;47.812;12.374;2022-12-07T09:31:28;3.00;99.90
8109;DHT22;4097;47.812;12.374;2022-12-07T09:33:56;3.10;99.90
8109;DHT22;4097;47.812;12.374;2022-12-07T09:36:23;3.10;99.90
8109;DHT22;4097;47.812;12.374;2022-12-07T09:38:57;3.10;99.90
8109;DHT22;4097;47.812;12.374;2022-12-07T09:41:25;3.10;99.90
8109;DHT22;4097;47.812;12.374;2022-12-07T09:43:56;3.20;99.90
8109;DHT22;4097;47.812;12.374;2022-12-07T09:46:26;3.20;99.90
8109;DHT22;4097;47.812;12.374;2022-12-07T09:48:59;3.20;99.90
8109;DHT22;4097;47.812;12.374;2022-12-07T09:51:26;3.20;99.90
8109;DHT22;4097;47.812;12.374;2022-12-07T09:53:55;3.30;99.90
8109;DHT22;4097;47.812;12.374;2022-12-07T09:56:25;3.30;99.90
8109;DHT22;4097;47.812;12.374;2022-12-07T09:58:59;3.20;99.90
8109;DHT22;4097;47.812;12.374;2022-12-07T10:01:29;3.30;99.90
8109;DHT22;4097;47.812;12.374;2022-12-07T10:04:02;3.30;99.90
8109;DHT22;4097;47.812;12.374;2022-12-07T10:06:33;3.30;99.90
8109;DHT22;4097;47.812;12.374;2022-12-07T10:09:11;3.40;99.90
8109;DHT22;4097;47.812;12.374;2022-12-07T10:12:10;3.30;99.90
8109;DHT22;4097;47.812;12.374;2022-12-07T10:14:40;3.30;99.90
8109;DHT22;4097;47.812;12.374;2022-12-07T10:17:27;3.30;99.90
8109;DHT22;4097;47.812;12.374;2022-12-07T10:20:17;3.40;99.90
8109;DHT22;4097;47.812;12.374;2022-12-07T10:22:58;3.40;99.90
8109;DHT22;4097;47.812;12.374;2022-12-07T10:25:28;3.40;99.90
8109;DHT22;4097;47.812;12.374;2022-12-07T10:28:00;3.40;99.90
8109;DHT22;4097;47.812;12.374;2022-12-07T10:30:47;3.40;99.90
8109;DHT22;4097;47.812;12.374;2022-12-07T10:33:28;3.50;99.90
8109;DHT22;4097;47.812;12.374;2022-12-07T10:35:56;3.50;99.90
8109;DHT22;4097;47.812;12.374;2022-12-07T10:38:25;3.50;99.90
8109;DHT22;4097;47.812;12.374;2022-12-07T10:41:06;3.50;99.90
8109;DHT22;4097;47.812;12.374;2022-12-07T10:43:36;3.60;99.90
8109;DHT22;4097;47.812;12.374;2022-12-07T10:46:26;3.70;99.90
8109;DHT22;4097;47.812;12.374;2022-12-07T10:49:10;3.70;99.90
8109;DHT22;4097;47.812;12.374;2022-12-07T10:51:46;3.70;99.90
8109;DHT22;4097;47.812;12.374;2022-12-07T10:54:22;3.70;99.90
8109;DHT22;4097;47.812;12.374;2022-12-07T10:57:17;3.70;99.90
8109;DHT22;4097;47.812;12.374;2022-12-07T11:00:10;3.70;99.90
8109;DHT22;4097;47.812;12.374;2022-12-07T11:03:07;3.70;99.90
8109;DHT22;4097;47.812;12.374;2022-12-07T11:05:41;3.70;99.90
8109;DHT22;4097;47.812;12.374;2022-12-07T11:08:17;3.80;99.90
8109;DHT22;4097;47.812;12.374;2022-12-07T11:10:55;3.80;99.90
8109;DHT22;4097;47.812;12.374;2022-12-07T11:13:28;3.80;99.90
8109;DHT22;4097;47.812;12.374;2022-12-07T11:19:23;3.90;99.90
8109;DHT22;4097;47.812;12.374;2022-12-07T11:21:56;4.00;99.90
8109;DHT22;4097;47.812;12.374;2022-12-07T11:24:29;4.00;99.90
8109;DHT22;4097;47.812;12.374;2022-12-07T11:27:09;4.00;99.90
8109;DHT22;4097;47.812;12.374;2022-12-07T11:29:52;4.10;99.90
8109;DHT22;4097;47.812;12.374;2022-12-07T11:32:30;4.10;99.90
8109;DHT22;4097;47.812;12.374;2022-12-07T11:35:09;4.10;99.90
8109;DHT22;4097;47.812;12.374;2022-12-07T11:37:38;4.10;99.90
8109;DHT22;4097;47.812;12.374;2022-12-07T11:40:17;4.20;99.90
8109;DHT22;4097;47.812;12.374;2022-12-07T11:42:49;4.30;99.90
8109;DHT22;4097;47.812;12.374;2022-12-07T11:45:22;4.30;99.90
8109;DHT22;4097;47.812;12.374;2022-12-07T11:47:54;4.30;99.90
8109;DHT22;4097;47.812;12.374;2022-12-07T11:50:34;4.30;99.90
8109;DHT22;4097;47.812;12.374;2022-12-07T11:53:09;4.30;99.90
8109;DHT22;4097;47.812;12.374;2022-12-07T11:55:42;4.40;99.90
8109;DHT22;4097;47.812;12.374;2022-12-07T12:01:15;4.50;99.90
8109;DHT22;4097;47.812;12.374;2022-12-07T12:03:47;4.50;99.90
8109;DHT22;4097;47.812;12.374;2022-12-07T12:06:16;4.60;99.90
8109;DHT22;4097;47.812;12.374;2022-12-07T12:08:46;4.60;99.90
8109;DHT22;4097;47.812;12.374;2022-12-07T12:11:46;4.60;99.90
8109;DHT22;4097;47.812;12.374;2022-12-07T12:14:29;4.60;99.90
8109;DHT22;4097;47.812;12.374;2022-12-07T12:17:25;4.60;99.90
8109;DHT22;4097;47.812;12.374;2022-12-07T12:20:11;4.70;99.90
8109;DHT22;4097;47.812;12.374;2022-12-07T12:22:48;4.60;99.90
8109;DHT22;4097;47.812;12.374;2022-12-07T12:25:21;4.60;99.90
8109;DHT22;4097;47.812;12.374;2022-12-07T12:27:50;4.60;99.90
8109;DHT22;4097;47.812;12.374;2022-12-07T12:30:31;4.70;99.90
8109;DHT22;4097;47.812;12.374;2022-12-07T12:33:06;4.70;99.90
8109;DHT22;4097;47.812;12.374;2022-12-07T12:35:34;4.70;99.90
8109;DHT22;4097;47.812;12.374;2022-12-07T12:38:29;4.70;99.70
8109;DHT22;4097;47.812;12.374;2022-12-07T12:41:01;4.70;99.30
8109;DHT22;4097;47.812;12.374;2022-12-07T12:43:46;4.80;99.70
8109;DHT22;4097;47.812;12.374;2022-12-07T12:46:37;4.80;99.80
8109;DHT22;4097;47.812;12.374;2022-12-07T12:55:22;4.80;99.10
8109;DHT22;4097;47.812;12.374;2022-12-07T13:03:59;4.80;98.80
8109;DHT22;4097;47.812;12.374;2022-12-07T13:06:35;4.80;99.00
8109;DHT22;4097;47.812;12.374;2022-12-07T13:09:21;4.80;98.70
8109;DHT22;4097;47.812;12.374;2022-12-07T13:11:56;4.80;98.30
8109;DHT22;4097;47.812;12.374;2022-12-07T13:14:55;4.90;98.50
8109;DHT22;4097;47.812;12.374;2022-12-07T13:20:50;4.90;98.80
8109;DHT22;4097;47.812;12.374;2022-12-07T13:23:23;4.90;98.90
8109;DHT22;4097;47.812;12.374;2022-12-07T13:26:14;4.90;98.80
8109;DHT22;4097;47.812;12.374;2022-12-07T13:28:45;4.90;98.90
8109;DHT22;4097;47.812;12.374;2022-12-07T13:31:32;5.00;98.90
8109;DHT22;4097;47.812;12.374;2022-12-07T13:34:00;5.00;98.60
8109;DHT22;4097;47.812;12.374;2022-12-07T13:36:31;4.90;98.70
8109;DHT22;4097;47.812;12.374;2022-12-07T13:39:17;5.00;98.80
8109;DHT22;4097;47.812;12.374;2022-12-07T13:41:46;5.00;98.90
8109;DHT22;4097;47.812;12.374;2022-12-07T13:44:18;4.90;99.10
8109;DHT22;4097;47.812;12.374;2022-12-07T13:46:52;4.90;98.70
8109;DHT22;4097;47.812;12.374;2022-12-07T13:49:27;5.00;98.80
8109;DHT22;4097;47.812;12.374;2022-12-07T13:52:06;5.00;98.90
8109;DHT22;4097;47.812;12.374;2022-12-07T13:54:33;5.00;98.90
8109;DHT22;4097;47.812;12.374;2022-12-07T13:57:09;4.90;99.00
8109;DHT22;4097;47.812;12.374;2022-12-07T13:59:44;5.00;99.60
8109;DHT22;4097;47.812;12.374;2022-12-07T14:02:18;4.90;99.80
8109;DHT22;4097;47.812;12.374;2022-12-07T14:04:48;4.90;99.90
8109;DHT22;4097;47.812;12.374;2022-12-07T14:07:24;4.90;99.90
8109;DHT22;4097;47.812;12.374;2022-12-07T14:10:02;4.90;99.90
8109;DHT22;4097;47.812;12.374;2022-12-07T14:12:32;4.90;99.90
8109;DHT22;4097;47.812;12.374;2022-12-07T14:15:02;4.90;99.90
8109;DHT22;4097;47.812;12.374;2022-12-07T14:17:29;4.80;99.90
8109;DHT22;4097;47.812;12.374;2022-12-07T14:20:02;4.80;99.90
8109;DHT22;4097;47.812;12.374;2022-12-07T14:22:33;4.80;99.90
8109;DHT22;4097;47.812;12.374;2022-12-07T14:25:19;4.70;99.90
8109;DHT22;4097;47.812;12.374;2022-12-07T14:27:58;4.80;99.90
8109;DHT22;4097;47.812;12.374;2022-12-07T14:30:32;4.70;99.90
8109;DHT22;4097;47.812;12.374;2022-12-07T14:33:10;4.70;99.90
8109;DHT22;4097;47.812;12.374;2022-12-07T14:35:53;4.70;99.90
8109;DHT22;4097;47.812;12.374;2022-12-07T14:38:22;4.70;99.90
8109;DHT22;4097;47.812;12.374;2022-12-07T14:40:57;4.60;99.90
8109;DHT22;4097;47.812;12.374;2022-12-07T14:43:44;4.60;99.90
8109;DHT22;4097;47.812;12.374;2022-12-07T14:46:13;4.70;99.90
8109;DHT22;4097;47.812;12.374;2022-12-07T14:48:40;4.70;99.90
8109;DHT22;4097;47.812;12.374;2022-12-07T14:51:11;4.60;99.90
8109;DHT22;4097;47.812;12.374;2022-12-07T14:53:44;4.70;99.90
8109;DHT22;4097;47.812;12.374;2022-12-07T14:56:22;4.70;99.90
8109;DHT22;4097;47.812;12.374;2022-12-07T14:59:03;4.70;99.90
8109;DHT22;4097;47.812;12.374;2022-12-07T15:01:31;4.70;99.90
8109;DHT22;4097;47.812;12.374;2022-12-07T15:03:58;4.70;99.90
8109;DHT22;4097;47.812;12.374;2022-12-07T15:06:25;4.70;99.90
8109;DHT22;4097;47.812;12.374;2022-12-07T15:09:04;4.70;99.90
8109;DHT22;4097;47.812;12.374;2022-12-07T15:11:31;4.60;99.90
8109;DHT22;4097;47.812;12.374;2022-12-07T15:14:09;4.60;99.90
8109;DHT22;4097;47.812;12.374;2022-12-07T15:16:43;4.60;99.90
8109;DHT22;4097;47.812;12.374;2022-12-07T15:19:16;4.60;99.90
8109;DHT22;4097;47.812;12.374;2022-12-07T15:21:43;4.60;99.90
8109;DHT22;4097;47.812;12.374;2022-12-07T15:24:11;4.50;99.90
8109;DHT22;4097;47.812;12.374;2022-12-07T15:26:39;4.60;99.90
8109;DHT22;4097;47.812;12.374;2022-12-07T15:29:12;4.50;99.90
8109;DHT22;4097;47.812;12.374;2022-12-07T15:31:42;4.50;99.90
8109;DHT22;4097;47.812;12.374;2022-12-07T15:34:08;4.50;99.90
8109;DHT22;4097;47.812;12.374;2022-12-07T15:36:36;4.50;99.90
8109;DHT22;4097;47.812;12.374;2022-12-07T15:39:09;4.50;99.90
8109;DHT22;4097;47.812;12.374;2022-12-07T15:41:39;4.50;99.90
8109;DHT22;4097;47.812;12.374;2022-12-07T15:44:09;4.50;99.90
8109;DHT22;4097;47.812;12.374;2022-12-07T15:46:55;4.50;99.90
8109;DHT22;4097;47.812;12.374;2022-12-07T15:49:28;4.50;99.90
8109;DHT22;4097;47.812;12.374;2022-12-07T15:51:58;4.50;99.90
8109;DHT22;4097;47.812;12.374;2022-12-07T15:54:29;4.40;99.90
8109;DHT22;4097;47.812;12.374;2022-12-07T15:57:01;4.40;99.90
8109;DHT22;4097;47.812;12.374;2022-12-07T15:59:33;4.30;99.90
8109;DHT22;4097;47.812;12.374;2022-12-07T16:02:02;4.40;99.90
8109;DHT22;4097;47.812;12.374;2022-12-07T16:04:35;4.30;99.90
8109;DHT22;4097;47.812;12.374;2022-12-07T16:07:04;4.30;99.90
8109;DHT22;4097;47.812;12.374;2022-12-07T16:09:37;4.30;99.90
8109;DHT22;4097;47.812;12.374;2022-12-07T16:12:05;4.20;99.90
8109;DHT22;4097;47.812;12.374;2022-12-07T16:14:31;4.30;99.90
8109;DHT22;4097;47.812;12.374;2022-12-07T16:16:59;4.20;99.90
8109;DHT22;4097;47.812;12.374;2022-12-07T16:19:35;4.20;99.90
8109;DHT22;4097;47.812;12.374;2022-12-07T16:22:03;4.20;99.90
8109;DHT22;4097;47.812;12.374;2022-12-07T16:24:30;4.20;99.90
8109;DHT22;4097;47.812;12.374;2022-12-07T16:26:57;4.20;99.90
8109;DHT22;4097;47.812;12.374;2022-12-07T16:29:30;4.20;99.90
8109;DHT22;4097;47.812;12.374;2022-12-07T16:31:57;4.20;99.90
8109;DHT22;4097;47.812;12.374;2022-12-07T16:34:24;4.20;99.90
8109;DHT22;4097;47.812;12.374;2022-12-07T16:36:52;4.20;99.90
8109;DHT22;4097;47.812;12.374;2022-12-07T16:39:25;4.20;99.90
8109;DHT22;4097;47.812;12.374;2022-12-07T16:41:52;4.20;99.90
8109;DHT22;4097;47.812;12.374;2022-12-07T16:44:19;4.20;99.90
8109;DHT22;4097;47.812;12.374;2022-12-07T16:46:47;4.10;99.90
8109;DHT22;4097;47.812;12.374;2022-12-07T16:49:17;4.10;99.90
8109;DHT22;4097;47.812;12.374;2022-12-07T16:51:44;4.10;99.90
8109;DHT22;4097;47.812;12.374;2022-12-07T16:54:13;4.10;99.90
8109;DHT22;4097;47.812;12.374;2022-12-07T16:56:40;4.10;99.90